Terminal Aerodrome Forecast
Issued by NWS Bismarck, ND

Home | Current Version | Previous Version | Graphics & Text | Print | Product List | Glossary On
Versions: 1 2 3 4 5 6 7 8 9 10 11 12 13 14 15 16 17 18 19 20 21 22 23 24 25 26 27 28 29 30 31
000
FTUS43 KBIS 280909 AAE
TAFBIS
TAF AMD
KBIS 280909Z 2809/2906 07003KT P6SM VCFG OVC005
      TEMPO 2809/2812 1/4SM FG OVC002
     FM281600 03004KT P6SM BKN040
     FM282300 30004KT P6SM BKN070
     FM290500 28004KT P6SM SCT150=

USA.gov is the U.S. government's official web portal to all federal, state and local government web resources and services.